createdAt,value
2022-08-05T00:00:16.438Z,68
2022-08-05T00:15:58.305Z,68
2022-08-05T00:30:11.688Z,68
2022-08-05T00:45:03.713Z,68
2022-08-05T01:00:11.309Z,69
2022-08-05T01:15:05.307Z,69
2022-08-05T01:30:18.940Z,69
2022-08-05T01:45:08.401Z,69
2022-08-05T02:00:12.358Z,69
2022-08-05T02:15:03.474Z,70
2022-08-05T02:30:06.912Z,70
2022-08-05T02:45:02.698Z,70
2022-08-05T03:00:06.100Z,70
2022-08-05T03:15:06.991Z,70
2022-08-05T03:30:09.135Z,70
2022-08-05T03:45:23.481Z,70
2022-08-05T04:00:08.007Z,70
2022-08-05T04:15:08.039Z,70
2022-08-05T04:30:07.446Z,70
2022-08-05T04:45:03.401Z,70
2022-08-05T05:00:08.359Z,70
2022-08-05T05:15:04.104Z,70
2022-08-05T05:30:05.596Z,70
2022-08-05T05:45:03.498Z,70
2022-08-05T06:00:10.272Z,70
2022-08-05T06:15:08.183Z,70
2022-08-05T06:30:20.953Z,70
2022-08-05T06:45:06.524Z,70
2022-08-05T07:00:10.011Z,70
2022-08-05T07:15:03.595Z,70
2022-08-05T07:30:30.577Z,70
2022-08-05T07:45:02.814Z,70
2022-08-05T08:00:11.729Z,69
2022-08-05T08:15:04.738Z,69
2022-08-05T08:30:37.955Z,69
2022-08-05T08:45:26.435Z,68
2022-08-05T09:00:06.718Z,68
2022-08-05T09:15:06.492Z,68
2022-08-05T09:30:07.186Z,68
2022-08-05T09:46:05.436Z,68
2022-08-05T10:00:10.966Z,68
2022-08-05T10:15:03.596Z,68
2022-08-05T10:33:02.341Z,67
2022-08-05T10:45:30.595Z,67
2022-08-05T11:00:19.948Z,67
2022-08-05T11:15:21.111Z,67
2022-08-05T11:30:10.635Z,67
2022-08-05T11:45:05.630Z,67
2022-08-05T12:00:06.952Z,67
2022-08-05T12:15:04.295Z,67
2022-08-05T12:30:07.651Z,67
2022-08-05T12:45:09.834Z,67
2022-08-05T13:02:07.315Z,67
2022-08-05T13:15:10.087Z,67
2022-08-05T13:30:39.218Z,67
2022-08-05T13:45:06.357Z,66
2022-08-05T14:00:06.942Z,66
2022-08-05T14:16:11.051Z,66
2022-08-05T14:30:21.636Z,66
2022-08-05T14:45:03.589Z,66
2022-08-05T15:00:11.273Z,66
2022-08-05T15:15:10.842Z,66
2022-08-05T15:30:06.952Z,65
2022-08-05T15:45:06.384Z,65
2022-08-05T16:00:11.398Z,65
2022-08-05T16:15:03.622Z,65
2022-08-05T16:30:26.813Z,65
2022-08-05T16:46:08.055Z,65
2022-08-05T17:00:10.753Z,65
2022-08-05T17:15:06.089Z,65
2022-08-05T17:30:28.401Z,65
2022-08-05T17:45:21.465Z,66
2022-08-05T18:00:07.676Z,66
2022-08-05T18:15:02.547Z,66
2022-08-05T18:30:06.982Z,66
2022-08-05T18:45:05.277Z,67
2022-08-05T19:00:20.948Z,68
2022-08-05T19:15:03.147Z,69
2022-08-05T19:30:06.503Z,70
2022-08-05T19:45:06.419Z,70
2022-08-05T20:00:07.443Z,69
2022-08-05T20:15:04.221Z,70
2022-08-05T20:30:08.351Z,71
2022-08-05T20:45:05.420Z,71
2022-08-05T21:00:44.444Z,72
2022-08-05T21:15:07.105Z,71
2022-08-05T21:30:17.822Z,72
2022-08-05T21:45:03.960Z,72
2022-08-05T22:00:11.698Z,72
2022-08-05T22:15:03.741Z,73
2022-08-05T22:30:07.876Z,73
2022-08-05T22:45:03.830Z,73
2022-08-05T23:00:08.068Z,73
2022-08-05T23:15:09.381Z,73
2022-08-05T23:30:08.366Z,73
2022-08-05T23:45:03.214Z,73
